createdAt,value
2023-01-22T00:02:50.150Z,0.70
2023-01-22T00:06:53.049Z,0.70
2023-01-22T00:10:56.735Z,0.70
2023-01-22T00:14:59.915Z,0.71
2023-01-22T00:19:04.292Z,0.76
2023-01-22T00:23:07.482Z,0.79
2023-01-22T00:27:11.617Z,0.82
2023-01-22T00:31:16.956Z,0.82
2023-01-22T00:35:21.260Z,0.81
2023-01-22T00:39:24.114Z,0.89
2023-01-22T00:43:28.399Z,0.91
2023-01-22T00:47:32.189Z,0.90
2023-01-22T00:51:39.266Z,0.93
2023-01-22T00:55:51.564Z,0.91
2023-01-22T00:59:54.355Z,0.88
2023-01-22T01:03:58.306Z,0.86
2023-01-22T01:08:02.682Z,0.85
2023-01-22T01:12:08.795Z,0.88
2023-01-22T01:16:19.654Z,0.88
2023-01-22T01:20:22.564Z,0.82
2023-01-22T01:24:27.201Z,0.81
2023-01-22T01:28:30.070Z,0.82
2023-01-22T01:32:33.218Z,0.85
2023-01-22T01:36:48.308Z,0.89
2023-01-22T01:40:53.698Z,0.85
2023-01-22T01:45:26.842Z,0.86
2023-01-22T01:49:34.229Z,0.82
2023-01-22T01:53:38.692Z,0.81
2023-01-22T01:57:43.309Z,0.85
2023-01-22T02:01:50.437Z,0.91
2023-01-22T02:05:59.712Z,0.89
2023-01-22T02:10:06.267Z,0.89
2023-01-22T02:14:13.660Z,0.79
2023-01-22T02:18:16.734Z,0.73
2023-01-22T02:22:22.545Z,0.73
2023-01-22T02:26:25.563Z,0.75
2023-01-22T02:30:28.599Z,0.86
2023-01-22T02:34:32.676Z,0.91
2023-01-22T02:38:38.004Z,0.91
2023-01-22T02:42:43.076Z,0.89
2023-01-22T02:46:47.508Z,0.81
2023-01-22T02:50:51.340Z,0.84
2023-01-22T02:54:55.809Z,0.86
2023-01-22T02:59:05.316Z,0.90
2023-01-22T03:03:15.768Z,0.92
2023-01-22T03:07:21.412Z,0.90
2023-01-22T03:11:28.565Z,0.87
2023-01-22T03:15:57.789Z,0.85
2023-01-22T03:20:19.054Z,0.84
2023-01-22T03:24:23.887Z,0.73
2023-01-22T03:28:29.191Z,0.74
2023-01-22T03:32:32.447Z,0.70
2023-01-22T03:36:35.672Z,0.71
2023-01-22T03:40:42.022Z,0.72
2023-01-22T03:44:47.051Z,0.70
2023-01-22T03:48:51.941Z,0.73
2023-01-22T03:52:56.944Z,0.72
2023-01-22T03:57:00.470Z,0.71
2023-01-22T04:01:11.249Z,0.70
2023-01-22T04:05:14.777Z,0.72
2023-01-22T04:09:20.277Z,0.72
2023-01-22T04:13:25.083Z,0.76
2023-01-22T04:17:30.435Z,0.82
2023-01-22T04:21:49.021Z,0.77
2023-01-22T04:25:53.214Z,0.77
2023-01-22T04:29:56.653Z,0.82
2023-01-22T04:34:02.617Z,0.77
2023-01-22T04:38:09.035Z,0.77
2023-01-22T04:42:13.184Z,0.74
2023-01-22T04:46:16.271Z,0.79
2023-01-22T04:50:23.158Z,0.81
2023-01-22T04:54:27.566Z,0.81
2023-01-22T04:58:31.338Z,0.73
2023-01-22T05:02:36.021Z,0.76
2023-01-22T05:06:40.683Z,0.77
2023-01-22T05:10:44.129Z,0.76
2023-01-22T05:14:53.289Z,0.74
2023-01-22T05:18:56.672Z,0.68
2023-01-22T05:23:02.193Z,0.68
2023-01-22T05:27:07.197Z,0.71
2023-01-22T05:31:17.848Z,0.68
2023-01-22T05:35:28.274Z,0.73
2023-01-22T05:39:34.150Z,0.75
2023-01-22T05:43:40.393Z,0.72
2023-01-22T05:47:52.761Z,0.71
2023-01-22T05:52:11.411Z,0.69
2023-01-22T05:56:17.094Z,0.69
2023-01-22T06:00:20.577Z,0.68
2023-01-22T06:04:30.971Z,0.66
2023-01-22T06:08:36.149Z,0.68
2023-01-22T06:12:40.557Z,0.66
2023-01-22T06:16:43.378Z,0.65
2023-01-22T06:20:59.547Z,0.64
2023-01-22T06:25:03.793Z,0.58
2023-01-22T06:29:26.330Z,0.64
2023-01-22T06:33:31.366Z,0.71
2023-01-22T06:37:34.563Z,0.70
2023-01-22T06:41:37.843Z,0.65
2023-01-22T06:45:44.734Z,0.66
2023-01-22T06:49:47.863Z,0.67
2023-01-22T06:53:50.627Z,0.69
2023-01-22T06:57:56.188Z,0.74
2023-01-22T07:02:00.408Z,0.72
2023-01-22T07:06:05.171Z,0.66
2023-01-22T07:10:08.665Z,0.73
2023-01-22T07:14:12.085Z,0.70
2023-01-22T07:18:19.606Z,0.76
2023-01-22T07:22:22.731Z,0.78
2023-01-22T07:26:26.292Z,0.81
2023-01-22T07:30:29.471Z,0.79
2023-01-22T07:34:33.887Z,0.78
2023-01-22T07:38:36.737Z,0.77
2023-01-22T07:42:39.728Z,0.81
2023-01-22T07:46:43.496Z,0.80
2023-01-22T07:50:47.745Z,0.84
2023-01-22T07:54:50.560Z,0.85
2023-01-22T07:58:53.543Z,0.79
2023-01-22T08:02:56.632Z,0.84
2023-01-22T08:07:00.978Z,0.88
2023-01-22T08:11:04.529Z,0.87
2023-01-22T08:15:08.457Z,0.89
2023-01-22T08:19:11.643Z,0.88
2023-01-22T08:23:16.163Z,0.86
2023-01-22T08:27:19.436Z,0.92
2023-01-22T08:31:27.939Z,0.93
2023-01-22T08:35:32.020Z,0.96
2023-01-22T08:39:36.563Z,1.01
2023-01-22T08:43:39.423Z,1.08
2023-01-22T08:47:42.394Z,1.17
2023-01-22T08:51:45.462Z,1.14
2023-01-22T08:55:52.659Z,1.15
2023-01-22T09:00:01.086Z,1.14
2023-01-22T09:04:07.293Z,1.13
2023-01-22T09:08:10.290Z,1.22
2023-01-22T09:12:14.625Z,1.25
2023-01-22T09:16:17.557Z,1.33
2023-01-22T09:20:21.064Z,1.31
2023-01-22T09:24:24.978Z,1.30
2023-01-22T09:28:29.697Z,1.32
2023-01-22T09:32:32.955Z,1.28
2023-01-22T09:36:35.854Z,1.26
2023-01-22T09:40:44.031Z,1.21
2023-01-22T09:44:52.688Z,1.21
2023-01-22T09:49:00.670Z,1.29
2023-01-22T09:53:06.273Z,1.26
2023-01-22T09:57:30.748Z,1.22
2023-01-22T10:01:36.788Z,1.23
2023-01-22T10:05:42.869Z,1.31
2023-01-22T10:09:53.113Z,1.34
2023-01-22T10:13:59.757Z,1.32
2023-01-22T10:18:16.250Z,1.34
2023-01-22T10:22:22.237Z,1.36
2023-01-22T10:26:33.823Z,1.38
2023-01-22T10:30:47.328Z,1.34
2023-01-22T10:35:08.269Z,1.42
2023-01-22T10:39:14.408Z,1.44
2023-01-22T10:43:18.753Z,1.46
2023-01-22T10:47:27.297Z,1.43
2023-01-22T10:51:38.270Z,1.51
2023-01-22T10:55:43.253Z,1.56
2023-01-22T10:59:50.673Z,1.63
2023-01-22T11:03:53.632Z,1.69
2023-01-22T11:08:01.284Z,1.69
2023-01-22T11:12:13.064Z,1.74
2023-01-22T11:16:19.299Z,1.78
2023-01-22T11:20:29.463Z,1.88
2023-01-22T11:24:41.081Z,1.87
2023-01-22T11:28:53.884Z,1.95
2023-01-22T11:33:05.905Z,1.97
2023-01-22T11:37:13.797Z,2.03
2023-01-22T11:41:36.740Z,1.99
2023-01-22T11:45:55.204Z,2.03
2023-01-22T11:50:15.709Z,2.06
2023-01-22T11:54:39.944Z,2.08
2023-01-22T11:58:57.538Z,2.12
2023-01-22T12:03:22.179Z,2.13
2023-01-22T12:07:46.425Z,2.20
2023-01-22T12:12:04.569Z,2.21
2023-01-22T12:16:24.697Z,2.20
2023-01-22T12:20:47.378Z,2.13
2023-01-22T12:24:54.718Z,2.13
2023-01-22T12:29:05.028Z,2.16
2023-01-22T12:33:14.625Z,2.19
2023-01-22T12:37:22.584Z,2.21
2023-01-22T12:41:48.933Z,2.27
2023-01-22T12:45:58.833Z,2.27
2023-01-22T12:50:04.860Z,2.32
2023-01-22T12:54:20.237Z,2.34
2023-01-22T12:58:25.983Z,2.36
2023-01-22T13:02:39.115Z,2.34
2023-01-22T13:06:43.800Z,2.28
2023-01-22T13:10:54.441Z,2.35
2023-01-22T13:14:58.637Z,2.35
2023-01-22T13:19:10.250Z,2.36
2023-01-22T13:23:16.764Z,2.34
2023-01-22T13:27:25.942Z,2.35
2023-01-22T13:31:29.317Z,2.32
2023-01-22T13:35:32.377Z,2.33
2023-01-22T13:39:36.686Z,2.32
2023-01-22T13:43:42.297Z,2.29
2023-01-22T13:47:45.344Z,2.26
2023-01-22T13:51:50.680Z,2.24
2023-01-22T13:55:55.678Z,2.22
2023-01-22T14:00:02.332Z,2.17
2023-01-22T14:04:08.858Z,2.12
2023-01-22T14:08:13.598Z,2.15
2023-01-22T14:12:20.931Z,2.15
2023-01-22T14:16:23.868Z,2.14
2023-01-22T14:20:27.060Z,2.13
2023-01-22T14:24:30.407Z,2.16
2023-01-22T14:28:36.556Z,2.15
2023-01-22T14:32:39.694Z,2.19
2023-01-22T14:36:44.839Z,2.17
2023-01-22T14:40:47.901Z,2.14
2023-01-22T14:44:52.235Z,2.16
2023-01-22T14:48:55.128Z,2.17
2023-01-22T14:52:58.422Z,2.21
2023-01-22T14:57:03.235Z,2.17
2023-01-22T15:01:18.859Z,2.16
2023-01-22T15:05:21.792Z,2.20
2023-01-22T15:09:24.814Z,2.23
2023-01-22T15:13:28.147Z,2.26
2023-01-22T15:17:32.548Z,2.30
2023-01-22T15:21:35.613Z,2.36
2023-01-22T15:25:38.670Z,2.45
2023-01-22T15:29:41.963Z,2.43
2023-01-22T15:33:46.273Z,2.43
2023-01-22T15:37:49.261Z,2.40
2023-01-22T15:41:52.174Z,2.35
2023-01-22T15:45:55.182Z,2.32
2023-01-22T15:49:59.615Z,2.25
2023-01-22T15:54:04.622Z,2.23
2023-01-22T15:58:07.971Z,2.29
2023-01-22T16:02:11.808Z,2.37
2023-01-22T16:06:17.433Z,2.32
2023-01-22T16:10:20.771Z,2.33
2023-01-22T16:14:24.058Z,2.35
2023-01-22T16:18:27.237Z,2.39
2023-01-22T16:22:31.843Z,2.29
2023-01-22T16:26:35.843Z,2.26
2023-01-22T16:30:38.902Z,2.30
2023-01-22T16:34:42.632Z,2.32
2023-01-22T16:38:48.009Z,2.38
2023-01-22T16:42:59.920Z,2.42
2023-01-22T16:47:02.787Z,2.41
2023-01-22T16:51:07.347Z,2.36
2023-01-22T16:55:13.364Z,2.37
2023-01-22T16:59:17.036Z,2.35
2023-01-22T17:03:19.998Z,2.35
2023-01-22T17:07:33.190Z,2.40
2023-01-22T17:11:38.476Z,2.40
2023-01-22T17:15:42.088Z,2.40
2023-01-22T17:19:44.904Z,2.37
2023-01-22T17:23:48.214Z,2.33
2023-01-22T17:27:52.648Z,2.31
2023-01-22T17:31:57.207Z,2.29
2023-01-22T17:36:01.001Z,2.30
2023-01-22T17:40:04.287Z,2.38
2023-01-22T17:44:08.609Z,2.36
2023-01-22T17:48:12.686Z,2.39
2023-01-22T17:52:16.711Z,2.44
2023-01-22T17:56:21.656Z,2.47
2023-01-22T18:00:25.841Z,2.49
2023-01-22T18:04:31.521Z,2.50
2023-01-22T18:08:38.376Z,2.50
2023-01-22T18:12:42.168Z,2.50
2023-01-22T18:16:47.302Z,2.51
2023-01-22T18:20:50.763Z,2.51
2023-01-22T18:24:53.770Z,2.54
2023-01-22T18:28:59.131Z,2.49
2023-01-22T18:33:04.899Z,2.47
2023-01-22T18:37:07.937Z,2.43
2023-01-22T18:41:13.554Z,2.47
2023-01-22T18:45:16.994Z,2.49
2023-01-22T18:49:22.761Z,2.50
2023-01-22T18:53:26.174Z,2.52
2023-01-22T18:57:29.913Z,2.51
2023-01-22T19:01:34.975Z,2.52
2023-01-22T19:05:41.155Z,2.55
2023-01-22T19:09:44.169Z,2.54
2023-01-22T19:13:47.697Z,2.51
2023-01-22T19:17:50.877Z,2.57
2023-01-22T19:21:57.955Z,2.60
2023-01-22T19:26:14.758Z,2.61
2023-01-22T19:30:25.661Z,2.62
2023-01-22T19:34:30.334Z,2.64
2023-01-22T19:38:35.800Z,2.61
2023-01-22T19:42:40.494Z,2.60
2023-01-22T19:46:43.669Z,2.62
2023-01-22T19:50:46.797Z,2.63
2023-01-22T19:54:51.453Z,2.60
2023-01-22T19:58:58.726Z,2.59
2023-01-22T20:03:06.549Z,2.60
2023-01-22T20:07:09.463Z,2.65
2023-01-22T20:11:14.981Z,2.70
2023-01-22T20:15:18.509Z,2.69
2023-01-22T20:19:21.531Z,2.73
2023-01-22T20:23:25.438Z,2.73
2023-01-22T20:27:45.804Z,2.76
2023-01-22T20:31:52.221Z,2.77
2023-01-22T20:35:56.786Z,2.79
2023-01-22T20:40:00.000Z,2.79
2023-01-22T20:44:05.229Z,2.81
2023-01-22T20:48:08.329Z,2.78
2023-01-22T20:52:11.557Z,2.75
2023-01-22T20:56:17.024Z,2.77
2023-01-22T21:00:21.840Z,2.76
2023-01-22T21:04:25.035Z,2.71
2023-01-22T21:08:27.928Z,2.69
2023-01-22T21:12:30.919Z,2.68
2023-01-22T21:16:37.603Z,2.62
2023-01-22T21:20:41.515Z,2.60
2023-01-22T21:24:44.842Z,2.61
2023-01-22T21:28:48.866Z,2.61
2023-01-22T21:32:54.307Z,2.64
2023-01-22T21:36:59.498Z,2.73
2023-01-22T21:41:07.441Z,2.75
2023-01-22T21:45:27.860Z,2.79
2023-01-22T21:49:34.717Z,2.82
2023-01-22T21:53:37.574Z,2.86
2023-01-22T21:57:40.368Z,2.83
2023-01-22T22:01:44.841Z,2.83
2023-01-22T22:05:57.368Z,2.87
2023-01-22T22:10:00.410Z,2.91
2023-01-22T22:14:05.635Z,2.95
2023-01-22T22:18:08.889Z,2.94
2023-01-22T22:22:13.275Z,2.95
2023-01-22T22:26:16.679Z,2.97
2023-01-22T22:30:20.220Z,2.98
2023-01-22T22:34:24.147Z,2.99
2023-01-22T22:38:28.325Z,3.01
2023-01-22T22:42:31.175Z,3.04
2023-01-22T22:46:35.785Z,3.04
2023-01-22T22:50:40.949Z,2.97
2023-01-22T22:54:45.170Z,2.94
2023-01-22T22:58:48.113Z,2.97
2023-01-22T23:02:51.055Z,2.94
2023-01-22T23:06:54.289Z,2.90
2023-01-22T23:10:58.734Z,2.88
2023-01-22T23:15:01.879Z,2.87
2023-01-22T23:19:08.955Z,2.84
2023-01-22T23:23:11.917Z,2.90
2023-01-22T23:27:16.628Z,2.93
2023-01-22T23:31:19.882Z,2.96
2023-01-22T23:35:22.745Z,2.97
2023-01-22T23:39:25.741Z,2.97
2023-01-22T23:43:30.707Z,2.98
2023-01-22T23:47:33.861Z,2.96
2023-01-22T23:51:38.145Z,2.97
2023-01-22T23:55:41.137Z,2.98
2023-01-22T23:59:45.757Z,2.95
